Weather observations for the past three days for
Tappahannock-Essex County Airport
Imperial (Metric)
Date Time (edt) Wind (mph) Vis. (mi.) Weather Sky Cond. Temperature (ºF) Relative Humidity Wind Chill (°F) Heat Index (°F) Pressure Precipitation (in)
Air Dwpt 6 hour altimeter (in) sea level (mb) 1 hr 3 hr 6 hr
Max. Min.
09 19:55 Calm 10.00 Fair CLR 70.7 52.9 78.1 70.7 53% 29.8 0.0
09 19:35 Calm 10.00 Fair CLR 72.5 52.7 50% 29.8 0.0
09 19:15 SW 3 10.00 Partly Cloudy SCT100 73.9 52.2 47% 29.8 0.0
09 18:55 SW 5 10.00 Overcast OVC100 73.9 51.8 46% 29.8 0.0
09 18:35 SW 6 10.00 Partly Cloudy SCT100 73.9 51.1 45% 29.8 0.0
09 18:15 SW 8 10.00 Fair CLR 76.1 51.1 42% 78 29.8 0.0
09 17:55 SW 12 10.00 Partly Cloudy SCT100 76.5 50.5 40% 78 29.79 0.0
09 17:35 SW 8 G 18 10.00 Fair CLR 75.9 50.2 41% 78 29.79 0.0
09 17:15 SW 12 G 18 10.00 Partly Cloudy SCT095 76.6 49.6 39% 78 29.79 0.0
09 16:55 SW 9 G 18 10.00 Partly Cloudy SCT065 SCT095 75.7 50 41% 78 29.79 0.0
09 16:35 SW 9 10.00 Partly Cloudy SCT095 77.7 50 38% 78 29.79 0.0
09 16:15 S 8 G 16 10.00 Fair CLR 77.7 50.2 38% 78 29.79 0.0
09 15:55 W 8 10.00 Mostly Cloudy SCT075 BKN090 77.4 49.8 38% 78 29.79 0.0
09 15:35 SW 8 10.00 Overcast SCT060 SCT075 OVC085 75.2 48.9 40% 78 29.81 0.0
09 15:15 S 8 10.00 Partly Cloudy SCT060 SCT075 SCT090 76.8 50 39% 78 29.81 0.0
09 14:55 SW 8 10.00 Partly Cloudy SCT055 77.2 49.8 38% 78 29.82 0.0
09 14:35 SW 12 G 22 10.00 Mostly Cloudy SCT055 SCT070 BKN080 76.5 50.2 40% 78 29.84 0.0
09 14:15 S 9 G 16 10.00 Mostly Cloudy BKN055 BKN070 BKN080 74.5 50.2 43% 29.84 0.0
09 13:55 S 9 G 18 10.00 Mostly Cloudy BKN065 74.7 50.2 75.4 58.1 42% 29.84 0.0
09 13:35 S 12 G 16 10.00 Mostly Cloudy BKN065 BKN070 74.3 50.5 43% 29.84 0.0
09 13:15 SW 8 10.00 Mostly Cloudy BKN050 BKN060 73 49.1 43% 29.86 0.0
09 12:55 S 8 G 17 10.00 Partly Cloudy SCT049 SCT060 72 50.7 47% 29.86 0.0
09 12:35 S 10 10.00 Fair CLR 71.4 51.4 49% 29.87 0.0
09 12:15 S 10 G 17 10.00 Fair CLR 70.9 51.6 51% 29.87 0.0
09 11:55 SW 13 G 17 10.00 Fair CLR 70.7 51.6 51% 29.87 0.0
09 11:35 S 14 G 18 10.00 Fair CLR 70.3 52.9 54% 29.89 0.0
09 11:15 S 9 10.00 Fair CLR 68.7 53.8 59% 29.89 0.0
09 10:55 S 8 10.00 Fair CLR 66.4 52.7 62% 29.91 0.0
09 10:35 SW 8 10.00 Fair CLR 66.6 53.1 62% 29.92 0.0
09 10:15 S 9 G 17 10.00 Fair CLR 65.1 52.3 63% 29.92 0.0
09 09:55 SW 9 10.00 Fair CLR 64.6 53.4 67% 29.93 0.0
09 09:35 S 8 10.00 Fair CLR 63.5 53.4 70% 29.93 0.0
09 09:15 S 9 10.00 Fair CLR 62.6 53.2 72% 29.93 0.0
09 08:55 S 6 10.00 Fair CLR 60.6 52.9 76% 29.93 0.0
09 08:35 S 5 10.00 Fair CLR 59.2 52.7 79% 29.94 0.0
09 08:15 S 7 10.00 Fair CLR 58.8 52.3 79% 29.93 0.0
09 07:55 S 7 10.00 Fair CLR 57.9 52.7 57.9 51.8 83% 29.93 0.0
09 07:35 S 5 10.00 Fair CLR 55.9 52.2 87% 29.93 0.0
09 07:15 S 5 10.00 Fair CLR 54.7 52.2 91% 29.93 0.0
09 06:55 S 6 10.00 Fair CLR 53.6 51.8 94% 29.93 0.0
09 06:35 S 5 10.00 Fair CLR 52.5 51.8 97% 29.93 0.0
09 06:15 S 5 10.00 Fair CLR 52.2 51.8 99% 29.93 0.0
09 05:55 S 6 10.00 Fair CLR 52.5 51.4 96% 29.93 0.0
09 05:35 S 5 10.00 Fair CLR 52.7 51.4 96% 29.93 0.0
09 05:15 S 5 10.00 Fair CLR 52.7 50.9 94% 29.93 0.0
09 04:55 S 5 10.00 Fair CLR 53.1 50.7 92% 29.92 0.0
09 04:35 S 7 10.00 Fair CLR 53.2 50.4 90% 29.92 0.0
09 04:15 S 6 10.00 Fair CLR 53.1 50.2 90% 29.92 0.0
09 03:55 S 5 10.00 Fair CLR 52.9 49.6 89% 29.93 0.0
09 03:35 S 3 10.00 Fair CLR 52.3 49.3 89% 29.94 0.0
09 03:15 S 5 10.00 Fair CLR 52.2 48.4 87% 29.94 0.0
09 02:55 Calm 10.00 Fair CLR 51.8 47.3 85% 29.94 0.0
09 02:35 S 3 10.00 Fair CLR 52.7 46.8 80% 29.95 0.0
09 02:15 S 3 10.00 Fair CLR 53.4 46.4 77% 29.95 0.0
09 01:55 S 5 10.00 Fair CLR 53.4 46.4 64.4 53.1 77% 29.95 0.0
09 01:35 S 5 10.00 Fair CLR 54.3 46.4 75% 29.95 0.0
09 01:15 S 3 10.00 Fair CLR 54.7 46 73% 29.95 0.0
09 00:55 S 3 10.00 Fair CLR 54.5 45.7 72% 29.95 0.0
09 00:35 S 3 10.00 Fair CLR 53.2 45.7 76% 29.95 0.0
09 00:15 S 3 10.00 Fair CLR 53.1 45.5 76% 29.96 0.0
08 23:55 S 3 10.00 Fair CLR 54 45.5 73% 29.96 0.0
08 23:35 S 3 10.00 Fair CLR 54.3 45 71% 29.97 0.0
08 23:15 S 3 10.00 Fair CLR 54.5 45.3 71% 29.97 0.0
08 22:55 S 5 10.00 Fair CLR 54.5 45.5 72% 29.97 0.0
08 22:35 S 3 10.00 Fair CLR 55.2 45.1 69% 29.97 0.0
08 22:15 SE 5 10.00 Fair CLR 55.8 45 67% 29.97 0.0
08 21:55 SE 3 10.00 Fair CLR 56.8 44.6 64% 29.96 0.0
08 21:35 SE 6 10.00 Fair CLR 57.4 43.7 60% 29.96 0.0
08 21:15 SE 5 10.00 Fair CLR 58.3 42.3 55% 29.96 0.0
08 20:55 SE 7 10.00 Fair CLR 57.6 40.5 53% 29.95 0.0
08 20:35 Calm 10.00 Fair CLR 61.3 38.8 44% 29.94 0.0
08 20:15 Calm 10.00 Fair CLR 62.6 38.3 41% 29.94 0.0
08 19:55 S 3 10.00 Fair CLR 64.6 37.8 71.8 64.6 37% 29.93 0.0
08 19:35 S 6 10.00 Fair CLR 66 37.8 35% 29.93 0.0
08 19:15 S 6 10.00 Fair CLR 67.8 36.5 32% 29.92 0.0
08 18:55 S 6 10.00 Fair CLR 68.9 36.3 30% 29.92 0.0
08 18:35 SW 10 10.00 Fair CLR 69.6 35.6 29% 29.93 0.0
08 18:15 W 6 10.00 Fair CLR 70.5 36.3 29% 29.93 0.0
08 17:55 S 10 G 16 10.00 Fair CLR 70.9 35.6 27% 29.93 0.0
08 17:35 SW 7 10.00 Fair CLR 71.1 35.2 27% 29.93 0.0
08 17:15 W 9 G 17 10.00 Fair CLR 70.7 34.3 26% 29.93 0.0
08 16:55 S 7 G 16 10.00 Fair CLR 70.9 33.6 25% 29.93 0.0
08 16:35 SW 9 G 21 10.00 Fair CLR 70.9 33.3 25% 29.94 0.0
08 16:15 SW 10 G 21 10.00 Fair CLR 71.1 34.3 26% 29.94 0.0
08 15:55 SW 13 G 21 10.00 Fair CLR 70.9 34.2 26% 29.95 0.0
08 15:35 SW 10 10.00 Fair CLR 70.7 34 26% 29.96 0.0
08 15:15 SW 9 G 17 10.00 Fair CLR 70.7 34.3 26% 29.97 0.0
08 14:55 SW 6 10.00 Fair CLR 70 34.9 28% 29.97 0.0
08 14:35 S 15 G 18 10.00 Fair CLR 69.4 35.2 28% 29.97 0.0
08 14:15 SW 6 10.00 Fair CLR 68.7 36.1 30% 29.98 0.0
08 13:55 SW 9 10.00 Fair CLR 67.5 35.6 67.5 49.8 31% 30 0.0
08 13:35 SW 5 10.00 Fair CLR 67.5 36.9 33% 30 0.0
08 13:15 S 10 G 16 10.00 Fair CLR 66.9 36.7 33% 30.01 0.0
08 12:55 Calm 10.00 Fair CLR 65.7 36 33% 30.01 0.0
08 12:35 W 8 10.00 Fair CLR 64.8 37.2 36% 30.02 0.0
08 12:15 W 6 10.00 Fair CLR 65.1 36 34% 30.03 0.0
08 11:55 SW 8 10.00 Fair CLR 63.1 37 38% 30.04 0.0
08 11:35 SW 6 10.00 Fair CLR 62.1 37 40% 30.05 0.0
08 11:15 SW 5 10.00 Fair CLR 61.9 37.8 41% 30.05 0.0
08 10:55 Calm 10.00 Fair CLR 60.3 37.4 43% 30.05 0.0
08 10:35 Calm 10.00 Fair CLR 59.7 38.8 46% 30.05 0.0
08 10:15 W 5 10.00 Fair CLR 59.4 40.5 50% 30.05 0.0
08 09:55 S 3 10.00 Fair CLR 58.5 42.1 55% 30.05 0.0
08 09:35 SE 3 10.00 Fair CLR 57.4 41.4 55% 30.05 0.0
08 09:15 Calm 10.00 Fair CLR 56.5 41.9 58% 30.05 0.0
08 08:55 Calm 10.00 Fair CLR 55.2 45.5 70% 30.05 0.0
08 08:35 Calm 10.00 Fair CLR 54 46.2 75% 30.05 0.0
08 08:15 Calm 10.00 Fair CLR 52.3 47.1 83% 30.03 0.0
08 07:55 Calm 10.00 Fair CLR 49.6 49.6 49.6 41 100% 30.02 0.0 0.01
08 07:35 Calm 10.00 Fair CLR 47.3 47.3 100% 30.02 0.0
08 07:15 Calm 10.00 Fair CLR 44.2 44.2 100% 30.01 0.0
08 06:55 Calm 10.00 Fair CLR 41.9 41.9 100% 30 0.0
08 06:35 Calm 1.50 Fog/Mist VV007 41.4 41.4 100% 30 0.0
08 06:15 Calm 1.00 Fog/Mist VV007 42.3 42.3 100% 29.99 0.0
08 05:55 Calm 10.00 Fair CLR 43.3 43.3 100% 29.98 0.0 0.01
08 05:35 Calm 10.00 Fair CLR 44.8 44.8 100% 29.97 0.0
08 05:15 Calm 10.00 Fair CLR 44.8 44.8 100% 29.97 0.0
08 04:55 Calm 10.00 Fair CLR 44.1 44.1 100% 29.96 0.0
08 04:35 Calm 7.00 Fair CLR 44.2 44.2 100% 29.95 0.0
08 04:15 W 3 5.00 Fog/Mist CLR 44.1 44.1 100% 29.95 0.0
08 03:55 W 5 7.00 Fair CLR 45.5 45.5 100% 44 29.94 0.0
08 03:35 W 5 5.00 Fog/Mist CLR 45.5 45.5 100% 44 29.94 0.0
08 03:15 W 3 7.00 Fair CLR 45.5 45.5 100% 29.94 0.0
08 02:55 W 5 7.00 Fair CLR 45.9 45.9 100% 44 29.93 0.0
08 02:35 W 5 3.00 Fog/Mist CLR 42.3 42.3 100% 40 29.92 0.0
08 02:15 Calm 3.00 Fog/Mist CLR 41.5 41.5 100% 29.92 0.0
08 01:55 S 3 4.00 Fog/Mist CLR 42.4 42.4 50 42.1 100% 29.92 0.0
08 01:35 Calm 5.00 Fog/Mist CLR 42.6 42.6 100% 29.92 0.0
08 01:15 Calm 5.00 Fog/Mist CLR 42.6 42.6 100% 29.92 0.0
08 00:55 Calm 7.00 Fair CLR 42.4 42.4 100% 29.91 0.0
08 00:35 W 3 10.00 Fair CLR 45.1 45.1 100% 29.91 0.0
08 00:15 Calm 7.00 Fair CLR 44.1 44.1 100% 29.91 0.0
07 23:55 Calm 10.00 Fair CLR 44.2 44.2 100% 29.9 0.0
07 23:35 Calm 1.00 Fog/Mist VV007 44.6 44.6 100% 29.9 0.0
07 23:15 Calm 5.00 Fog/Mist SCT080 45.1 45.1 100% 29.9 0.0
07 22:55 Calm 5.00 Fog/Mist SCT080 45.5 45.5 100% 29.9 0.0
07 22:35 W 3 10.00 Fair CLR 46.6 46.6 100% 29.9 0.0
07 22:15 Calm 10.00 Fair CLR 45.7 45.7 100% 29.89 0.0
07 21:55 Calm 10.00 Fair CLR 46.8 46.8 100% 29.89 0.0
07 21:35 Calm 10.00 Partly Cloudy SCT120 47.5 47.5 100% 29.9 0.0
07 21:15 Calm 10.00 Mostly Cloudy BKN120 48.6 48.6 100% 29.89 0.0
07 20:55 W 3 10.00 Overcast OVC110 49.5 49.5 100% 29.88 0.0
07 20:35 W 3 10.00 Overcast OVC110 49.5 49.5 100% 29.87 0.0
07 20:15 W 3 10.00 Overcast BKN100 OVC120 49.3 49.3 100% 29.87 0.0
07 19:55 Calm 10.00 Overcast BKN100 OVC120 50 50 58.1 50 100% 29.86 0.0 0.07
07 19:35 Calm 10.00 Mostly Cloudy BKN090 50.2 50.2 100% 29.85 0.0
07 19:15 Calm 10.00 Partly Cloudy SCT090 50.4 48.4 93% 29.85 0.0
07 18:55 SW 3 10.00 Overcast SCT009 SCT070 OVC090 51.3 50.2 96% 29.85 0.0
07 18:35 S 3 10.00 Overcast SCT009 OVC090 51.3 49.6 94% 29.85 0.0
07 18:15 Calm 10.00 Overcast OVC080 51.3 47.3 86% 29.84 0.0
07 17:55 Calm 10.00 Overcast OVC080 51.6 47.7 86% 29.84 0.0 0.05
07 17:35 Calm 10.00 Light Rain SCT049 BKN070 OVC080 51.1 47.5 88% 29.84 0.0 0.05
07 16:35 Calm 10.00 Overcast OVC065 54.1 43.5 68% 29.86 0.0
07 16:15 N 3 10.00 Drizzle OVC055 55.4 44.1 66% 29.84 0.0
07 15:55 Calm 10.00 Light Rain OVC055 56.7 39 52% 29.85 0.0
07 15:35 Calm 10.00 Overcast OVC055 57 38.8 51% 29.85 0.0
07 15:15 N 3 10.00 Light Drizzle OVC049 56.3 39.2 53% 29.86 0.0
07 14:55 Calm 10.00 Overcast OVC049 56.8 36 46% 29.87 0.0
07 14:35 NE 6 10.00 Overcast OVC049 57.6 36.3 45% 29.86 0.0
07 14:15 E 5 10.00 Overcast OVC049 57.9 39.2 50% 29.85 0.0
07 13:55 E 5 10.00 Overcast OVC047 56.7 39.2 57.6 53.8 52% 29.87 0.0
07 13:35 E 6 10.00 Overcast OVC047 56.3 39 53% 29.88 0.0
07 13:15 NE 8 10.00 Overcast OVC045 55 44.8 69% 29.89 0.0
07 12:55 NE 3 10.00 Overcast OVC045 54.7 44.4 68% 29.89 0.0
07 12:35 N 3 10.00 Overcast OVC043 54.3 44.1 68% 29.9 0.0
07 12:15 N 6 10.00 Light Rain SCT034 OVC043 55.9 41.9 59% 29.9 0.0
07 11:55 NE 7 10.00 Overcast OVC041 56.8 41 56% 29.9 0.0
07 11:35 N 6 10.00 Overcast OVC041 57.2 41.4 56% 29.9 0.0
07 11:15 NE 7 10.00 Overcast OVC041 57.2 43.2 60% 29.9 0.0
07 10:55 N 7 10.00 Overcast OVC039 57.2 43.7 61% 29.9 0.0
07 10:35 NE 9 10.00 Overcast OVC039 57.4 45.7 65% 29.91 0.0
07 10:15 N 7 10.00 Overcast SCT021 OVC039 57.4 46.8 68% 29.91 0.0
07 09:55 N 6 10.00 Overcast SCT019 OVC037 57.2 49.8 77% 29.91 0.0
07 09:35 N 7 10.00 Overcast OVC037 57.2 50 77% 29.9 0.0
07 09:15 NE 5 10.00 Overcast OVC035 56.7 49.1 76% 29.9 0.0
07 08:55 N 5 10.00 Overcast OVC035 56.5 48.4 74% 29.9 0.0
07 08:35 N 8 10.00 Overcast OVC035 56.5 48.2 74% 29.9 0.0
07 08:15 N 6 10.00 Overcast SCT020 OVC033 57 49.6 77% 29.9 0.0
07 07:55 NE 8 10.00 Overcast SCT018 OVC033 57.2 51.8 66 57.2 82% 29.89 0.0
07 07:35 N 8 10.00 Overcast SCT016 OVC033 57.2 51.6 82% 29.89 0.0
07 07:15 N 7 10.00 Overcast OVC031 57.4 51.6 81% 29.89 0.0
07 06:55 N 7 10.00 Overcast OVC031 57.6 51.4 80% 29.88 0.0
07 06:35 N 6 10.00 Overcast OVC031 57.7 51.4 80% 29.86 0.0
07 06:15 N 6 10.00 Overcast OVC029 58.1 52 80% 29.88 0.0
07 05:55 N 7 10.00 Overcast SCT013 OVC029 58.3 53.8 85% 29.88 0.0
07 05:35 N 6 10.00 Overcast BKN013 OVC029 58.5 56.3 93% 29.87 0.0
07 05:15 N 8 10.00 Overcast SCT011 OVC025 58.5 57 95% 29.86 0.0
07 04:55 N 5 10.00 Overcast SCT011 OVC025 58.5 57.2 96% 29.85 0.0
07 04:35 N 7 10.00 Overcast SCT011 OVC023 58.6 57.2 95% 29.86 0.0
07 04:15 N 5 10.00 Mostly Cloudy SCT011 BKN021 BKN032 58.6 57 94% 29.85 0.0
07 03:55 N 9 10.00 Overcast SCT011 OVC019 59.2 57.6 94% 29.84 0.0
07 03:35 NW 7 G 12 10.00 Drizzle BKN009 OVC015 60.3 59.4 97% 29.85 0.0
07 03:15 NW 8 10.00 Overcast SCT007 BKN023 OVC028 64.6 64.4 99% 29.83 0.0
07 02:55 N 3 10.00 Overcast OVC028 65.5 65.5 100% 29.81 0.0
07 02:35 Calm 10.00 Mostly Cloudy BKN031 BKN120 64.4 64.4 100% 29.81 0.0
07 02:15 Calm 10.00 Partly Cloudy SCT110 65.3 65.3 100% 29.8 0.0
07 01:55 Calm 10.00 Partly Cloudy SCT060 66.6 64.6 69.3 66.6 93% 29.8 0.0
07 01:35 Calm 10.00 Mostly Cloudy SCT060 SCT080 BKN100 67.1 64.2 91% 29.81 0.0
07 01:15 SW 5 10.00 Light Rain SCT060 BKN070 OVC090 67.8 63.9 87% 29.81 0.0
07 00:55 SW 6 10.00 Overcast SCT070 OVC090 67.6 63.5 87% 29.83 0.0
07 00:35 SW 3 10.00 Overcast BKN080 OVC120 67.6 63.5 87% 29.83 0.0
07 00:15 SW 5 10.00 Overcast OVC090 67.6 63.5 87% 29.83 0.0
06 23:55 SW 5 10.00 Partly Cloudy SCT090 67.1 63.5 88% 29.83 0.0
06 23:35 SW 5 10.00 Fair CLR 66.7 63.5 89% 29.82 0.0
06 23:15 S 5 10.00 Fair CLR 66.7 63.1 88% 29.81 0.0
06 22:55 SW 6 10.00 Fair CLR 67.1 63 87% 29.82 0.0
06 22:35 S 7 10.00 Fair CLR 67.3 62.6 85% 29.81 0.0
06 22:15 SW 5 10.00 Fair CLR 67.3 62.6 85% 29.83 0.0
06 21:55 SW 6 10.00 Fair CLR 67.3 62.4 85% 29.83 0.0
06 21:35 S 6 10.00 Fair CLR 67.3 62.1 83% 29.82 0.0
06 21:15 S 6 10.00 Fair CLR 67.1 61.7 83% 29.82 0.0
06 20:55 SW 6 10.00 Fair CLR 67.5 61.5 81% 29.83 0.0
06 20:35 SW 5 10.00 Fair CLR 67.3 61.2 81% 29.83 0.0
06 20:15 SW 6 10.00 Fair CLR 68.5 61 77% 29.83 0.0
Date Time (edt) Wind (mph) Vis. (mi.) Weather Sky Cond. Air Dwpt Max. Min. Relative Humidity Wind Chill (°F) Heat Index (°F) altimeter (in) sea level (mb) 1 hr 3 hr 6 hr
6 hour
Temperature (ºF) Pressure Precipitation (in)